Time;durP1;ratioP1;P1;durP2;ratioP2;P2;SDS_P1;SDS_P2;PMS_P1;PMS_P2;Temp;Humidity;BMP_temperature;BMP_pressure;BME280_temperature;BME280_humidity;BME280_pressure;Samples;Min_cycle;Max_cycle;Signal;HPM_P1;HPM_P2
2021/10/30 00:01:05;;;;;;;31.67;20.30;;;;;;;;;;4992421;28;20405;-67
2021/10/30 00:03:31;;;;;;;24.70;17.83;;;;;;;;;;4992522;28;20404;-67
2021/10/30 00:05:57;;;;;;;25.50;19.50;;;;;;;;;;4992629;28;20409;-67
2021/10/30 00:08:28;;;;;;;39.13;18.60;;;;;;;;;;4992358;28;20409;-67
2021/10/30 00:10:54;;;;;;;27.80;17.60;;;;;;;;;;4992511;28;20403;-67
2021/10/30 00:13:20;;;;;;;25.50;19.60;;;;;;;;;;4992313;28;20401;-67
2021/10/30 00:15:46;;;;;;;23.40;17.93;;;;;;;;;;4991140;28;20448;-67
2021/10/30 00:18:12;;;;;;;22.20;17.50;;;;;;;;;;4992151;28;20508;-67
2021/10/30 00:20:38;;;;;;;22.00;16.00;;;;;;;;;;4978322;28;20414;-67
2021/10/30 00:23:04;;;;;;;32.23;17.60;;;;;;;;;;4992009;28;20396;-67
2021/10/30 00:25:30;;;;;;;21.50;15.87;;;;;;;;;;4991982;28;20444;-67
2021/10/30 00:27:56;;;;;;;24.13;16.13;;;;;;;;;;4991791;28;20451;-67
2021/10/30 00:30:22;;;;;;;21.13;16.50;;;;;;;;;;4992278;28;20405;-67
2021/10/30 00:32:48;;;;;;;19.70;15.07;;;;;;;;;;4991822;28;20432;-67
2021/10/30 00:35:14;;;;;;;17.37;14.77;;;;;;;;;;4991741;28;20537;-67
2021/10/30 00:37:40;;;;;;;22.90;15.93;;;;;;;;;;4991612;28;20723;-67
2021/10/30 00:40:07;;;;;;;17.60;14.63;;;;;;;;;;4990521;28;20411;-67
2021/10/30 00:42:35;;;;;;;23.13;15.30;;;;;;;;;;4991795;28;20458;-67
2021/10/30 00:45:01;;;;;;;25.97;16.93;;;;;;;;;;4991998;28;20896;-67
2021/10/30 00:47:27;;;;;;;34.93;15.10;;;;;;;;;;4991373;28;20424;-67
2021/10/30 00:49:53;;;;;;;42.43;16.47;;;;;;;;;;4991363;28;20412;-67
2021/10/30 00:52:20;;;;;;;20.37;14.57;;;;;;;;;;4991340;28;20469;-67
2021/10/30 00:54:46;;;;;;;21.40;15.50;;;;;;;;;;4972186;28;20461;-67
2021/10/30 00:57:13;;;;;;;46.93;18.50;;;;;;;;;;4971889;28;20425;-67
2021/10/30 00:59:39;;;;;;;23.73;15.50;;;;;;;;;;4971834;28;20402;-68
2021/10/30 01:02:05;;;;;;;25.90;17.70;;;;;;;;;;4972069;28;20414;-67
2021/10/30 01:04:31;;;;;;;26.20;16.07;;;;;;;;;;4972149;28;20402;-67
2021/10/30 01:06:58;;;;;;;24.40;17.37;;;;;;;;;;4971675;28;20511;-67
2021/10/30 01:09:24;;;;;;;27.10;16.70;;;;;;;;;;4971821;28;20848;-67
2021/10/30 01:11:52;;;;;;;22.50;17.23;;;;;;;;;;4971760;28;20776;-68
2021/10/30 01:14:19;;;;;;;20.37;16.10;;;;;;;;;;4971777;28;20409;-67
2021/10/30 01:16:49;;;;;;;24.27;17.57;;;;;;;;;;4971782;28;20422;-67
2021/10/30 01:19:15;;;;;;;23.47;16.60;;;;;;;;;;4971334;28;20432;-67
2021/10/30 01:21:42;;;;;;;23.40;16.67;;;;;;;;;;4971772;28;20401;-67
2021/10/30 01:24:08;;;;;;;25.33;16.80;;;;;;;;;;4971452;28;20477;-67
2021/10/30 01:26:34;;;;;;;30.60;17.60;;;;;;;;;;4969837;28;20464;-67
2021/10/30 01:29:02;;;;;;;21.57;16.80;;;;;;;;;;4971633;28;20402;-67
2021/10/30 01:31:28;;;;;;;31.57;18.57;;;;;;;;;;4971454;28;20412;-67
2021/10/30 01:33:54;;;;;;;23.97;14.80;;;;;;;;;;4971462;28;20437;-67
2021/10/30 01:36:21;;;;;;;18.97;14.93;;;;;;;;;;4971805;28;20475;-67
2021/10/30 01:38:48;;;;;;;23.70;15.17;;;;;;;;;;4971318;28;20917;-67
2021/10/30 01:41:14;;;;;;;21.40;16.77;;;;;;;;;;4971452;28;20417;-67
2021/10/30 01:43:40;;;;;;;20.60;15.40;;;;;;;;;;4971431;28;20488;-67
2021/10/30 01:46:07;;;;;;;21.33;14.47;;;;;;;;;;4969912;28;20503;-67
2021/10/30 01:48:34;;;;;;;18.57;15.90;;;;;;;;;;4971450;28;20397;-67
2021/10/30 01:51:01;;;;;;;31.50;15.90;;;;;;;;;;4969987;28;20449;-67
2021/10/30 01:53:27;;;;;;;21.63;15.00;;;;;;;;;;4979841;28;20464;-68
2021/10/30 01:55:54;;;;;;;19.73;15.50;;;;;;;;;;4989331;28;20512;-68
2021/10/30 01:58:20;;;;;;;19.90;16.10;;;;;;;;;;4990499;28;20444;-67
2021/10/30 02:00:47;;;;;;;34.30;17.13;;;;;;;;;;4990549;28;20392;-67
2021/10/30 02:03:14;;;;;;;28.20;17.10;;;;;;;;;;4990627;28;20397;-67
2021/10/30 02:05:40;;;;;;;23.13;15.87;;;;;;;;;;4990327;28;20405;-67
2021/10/30 02:08:06;;;;;;;19.43;16.37;;;;;;;;;;4990114;28;20905;-67
2021/10/30 02:10:32;;;;;;;20.60;14.87;;;;;;;;;;4990435;28;20413;-68
2021/10/30 02:12:58;;;;;;;21.90;15.77;;;;;;;;;;4990271;28;20405;-67
2021/10/30 02:15:24;;;;;;;17.00;13.83;;;;;;;;;;4990455;28;20532;-67
2021/10/30 02:17:50;;;;;;;17.03;13.67;;;;;;;;;;4990220;28;20423;-67
2021/10/30 02:20:16;;;;;;;18.17;14.03;;;;;;;;;;4990236;28;20400;-67
2021/10/30 02:22:43;;;;;;;18.83;12.70;;;;;;;;;;4990066;28;20839;-67
2021/10/30 02:25:10;;;;;;;13.90;12.23;;;;;;;;;;4990346;28;20889;-67
2021/10/30 02:27:36;;;;;;;18.57;14.00;;;;;;;;;;4990041;28;20471;-67
2021/10/30 02:30:06;;;;;;;23.27;13.27;;;;;;;;;;4990352;28;20401;-67
2021/10/30 02:32:32;;;;;;;17.87;14.30;;;;;;;;;;4990084;28;20806;-67
2021/10/30 02:34:58;;;;;;;19.60;14.00;;;;;;;;;;4988736;28;20452;-67
2021/10/30 02:37:24;;;;;;;15.33;12.37;;;;;;;;;;4990113;28;20490;-67
2021/10/30 02:39:50;;;;;;;12.97;11.57;;;;;;;;;;4992608;28;20405;-68
2021/10/30 02:42:16;;;;;;;14.10;11.73;;;;;;;;;;4993186;28;20401;-68
2021/10/30 02:44:42;;;;;;;15.63;12.77;;;;;;;;;;4993336;28;20401;-68
2021/10/30 02:47:08;;;;;;;17.80;12.97;;;;;;;;;;4993146;28;20482;-67
2021/10/30 02:49:35;;;;;;;16.10;11.73;;;;;;;;;;4993476;28;20802;-67
2021/10/30 02:52:01;;;;;;;20.23;12.33;;;;;;;;;;4993208;28;20405;-67
2021/10/30 02:54:27;;;;;;;20.17;12.33;;;;;;;;;;4992541;28;20415;-67
2021/10/30 02:56:53;;;;;;;15.43;12.80;;;;;;;;;;4993709;28;20432;-67
2021/10/30 02:59:19;;;;;;;17.27;12.83;;;;;;;;;;4993503;28;20418;-67
2021/10/30 03:01:45;;;;;;;19.50;12.50;;;;;;;;;;4993912;28;20957;-67
2021/10/30 03:04:11;;;;;;;17.27;14.07;;;;;;;;;;4993707;28;20401;-67
2021/10/30 03:06:37;;;;;;;15.83;12.90;;;;;;;;;;4991267;28;20449;-67
2021/10/30 03:09:03;;;;;;;14.83;12.83;;;;;;;;;;4973250;28;20414;-67
2021/10/30 03:11:29;;;;;;;15.00;12.20;;;;;;;;;;4973575;28;20418;-67
2021/10/30 03:13:55;;;;;;;13.47;12.07;;;;;;;;;;4973934;28;20413;-67
2021/10/30 03:16:21;;;;;;;17.90;13.60;;;;;;;;;;4973354;28;20484;-67
2021/10/30 03:18:48;;;;;;;17.47;13.93;;;;;;;;;;4973521;28;20406;-67
2021/10/30 03:21:14;;;;;;;50.53;14.57;;;;;;;;;;4982734;28;20404;-67
2021/10/30 03:23:40;;;;;;;13.00;10.60;;;;;;;;;;4992929;28;20488;-67
2021/10/30 03:26:06;;;;;;;19.03;12.30;;;;;;;;;;4992646;28;20928;-67
2021/10/30 03:28:32;;;;;;;16.70;11.37;;;;;;;;;;4992996;28;20899;-67
2021/10/30 03:30:58;;;;;;;17.70;12.70;;;;;;;;;;4991840;28;20777;-67
2021/10/30 03:33:24;;;;;;;22.50;13.13;;;;;;;;;;4993232;28;20748;-67
2021/10/30 03:35:50;;;;;;;43.83;13.40;;;;;;;;;;4992869;28;20448;-67
2021/10/30 03:38:17;;;;;;;24.97;12.37;;;;;;;;;;4980883;28;20409;-67
2021/10/30 03:40:43;;;;;;;13.87;10.43;;;;;;;;;;4973430;28;20445;-67
2021/10/30 03:43:09;;;;;;;13.30;10.33;;;;;;;;;;4972520;28;20475;-67
2021/10/30 03:45:35;;;;;;;18.50;11.23;;;;;;;;;;4973288;28;20413;-67
2021/10/30 03:48:07;;;;;;;12.13;10.63;;;;;;;;;;4972889;28;20528;-67
2021/10/30 03:50:33;;;;;;;13.37;9.87;;;;;;;;;;4972952;28;20897;-67
2021/10/30 03:52:59;;;;;;;25.37;11.60;;;;;;;;;;4971621;28;20414;-67
2021/10/30 03:55:26;;;;;;;26.60;10.77;;;;;;;;;;4973068;28;20461;-67
2021/10/30 03:57:52;;;;;;;23.83;10.53;;;;;;;;;;4973045;28;20440;-67
2021/10/30 04:00:18;;;;;;;17.57;10.30;;;;;;;;;;4973000;28;20434;-67
2021/10/30 04:02:44;;;;;;;10.20;8.33;;;;;;;;;;4973743;28;20405;-67
2021/10/30 04:05:11;;;;;;;43.50;10.47;;;;;;;;;;4974759;28;20398;-67
2021/10/30 04:07:37;;;;;;;11.03;9.60;;;;;;;;;;4972434;28;20950;-68
2021/10/30 04:10:03;;;;;;;16.00;9.60;;;;;;;;;;4972439;28;20511;-68
2021/10/30 04:12:29;;;;;;;12.20;9.87;;;;;;;;;;4972425;28;20409;-67
2021/10/30 04:14:55;;;;;;;14.63;10.67;;;;;;;;;;4972483;28;20493;-67
2021/10/30 04:17:21;;;;;;;14.70;9.53;;;;;;;;;;4972603;28;20421;-67
2021/10/30 04:19:47;;;;;;;18.00;10.27;;;;;;;;;;4972785;28;20425;-67
2021/10/30 04:22:13;;;;;;;10.90;8.67;;;;;;;;;;4972533;28;20925;-67
2021/10/30 04:24:39;;;;;;;11.80;8.63;;;;;;;;;;4971187;28;20397;-68
2021/10/30 04:27:06;;;;;;;12.73;10.10;;;;;;;;;;4972719;28;20498;-66
2021/10/30 04:29:32;;;;;;;11.13;9.20;;;;;;;;;;4973539;28;20405;-67
2021/10/30 04:32:00;;;;;;;10.47;9.37;;;;;;;;;;4972709;28;20402;-67
2021/10/30 04:37:17;;;;;;;10.00;8.10;;;;;;;;;;4980087;28;20452;-67
2021/10/30 04:39:47;;;;;;;9.60;8.47;;;;;;;;;;4991778;28;20412;-67
2021/10/30 04:42:13;;;;;;;10.40;7.83;;;;;;;;;;4990021;28;20405;-67
2021/10/30 04:44:40;;;;;;;10.70;9.07;;;;;;;;;;4991344;28;20404;-67
2021/10/30 04:47:06;;;;;;;10.73;9.33;;;;;;;;;;4991247;28;20419;-67
2021/10/30 04:49:33;;;;;;;13.60;10.00;;;;;;;;;;4991321;28;20806;-67
2021/10/30 04:51:59;;;;;;;14.33;9.23;;;;;;;;;;4991605;28;20436;-67
2021/10/30 04:54:25;;;;;;;13.37;9.70;;;;;;;;;;4991293;28;20974;-67
2021/10/30 04:56:52;;;;;;;13.23;10.10;;;;;;;;;;4991412;28;20429;-67
2021/10/30 04:59:18;;;;;;;11.03;8.90;;;;;;;;;;4991325;28;20487;-67
2021/10/30 05:01:44;;;;;;;14.13;11.50;;;;;;;;;;4990656;28;20407;-67
2021/10/30 05:04:10;;;;;;;12.60;11.20;;;;;;;;;;4991173;28;20889;-67
2021/10/30 05:06:36;;;;;;;14.30;10.00;;;;;;;;;;4991454;28;20442;-67
2021/10/30 05:09:03;;;;;;;13.80;10.77;;;;;;;;;;4986045;28;20421;-67
2021/10/30 05:11:29;;;;;;;14.00;11.27;;;;;;;;;;4971926;28;20416;-67
2021/10/30 05:13:55;;;;;;;10.97;9.87;;;;;;;;;;4971695;28;20402;-67
2021/10/30 05:16:21;;;;;;;14.77;11.27;;;;;;;;;;4971301;28;20477;-67
2021/10/30 05:18:47;;;;;;;16.53;10.53;;;;;;;;;;4971610;28;20452;-67
2021/10/30 05:21:13;;;;;;;10.87;9.10;;;;;;;;;;4971492;28;20414;-67
2021/10/30 05:23:40;;;;;;;9.90;8.90;;;;;;;;;;4971629;28;20417;-67
2021/10/30 05:26:06;;;;;;;11.17;10.07;;;;;;;;;;4971494;28;20428;-67
2021/10/30 05:28:32;;;;;;;13.97;10.93;;;;;;;;;;5070338;23;20852;-65
2021/10/30 05:30:59;;;;;;;12.50;9.90;;;;;;;;;;5067926;28;20912;-65
2021/10/30 05:33:25;;;;;;;12.57;10.10;;;;;;;;;;5059425;28;20486;-67
2021/10/30 05:35:51;;;;;;;13.37;9.97;;;;;;;;;;5053332;28;20534;-65
2021/10/30 05:38:17;;;;;;;9.73;8.60;;;;;;;;;;5072818;28;20451;-66
2021/10/30 05:40:44;;;;;;;14.40;11.63;;;;;;;;;;5072876;28;20947;-65
2021/10/30 05:43:11;;;;;;;11.60;9.43;;;;;;;;;;5073206;28;20404;-65
2021/10/30 05:45:41;;;;;;;11.10;9.90;;;;;;;;;;5073516;28;20409;-65
2021/10/30 05:48:08;;;;;;;10.47;9.30;;;;;;;;;;5071470;28;20417;-64
2021/10/30 05:50:35;;;;;;;11.50;8.87;;;;;;;;;;5052860;28;20492;-65
2021/10/30 05:53:01;;;;;;;10.40;9.30;;;;;;;;;;5052731;28;20459;-65
2021/10/30 05:55:28;;;;;;;14.67;8.90;;;;;;;;;;5052755;28;20537;-65
2021/10/30 05:57:54;;;;;;;12.40;10.30;;;;;;;;;;5052604;28;20426;-65
2021/10/30 06:00:20;;;;;;;14.53;10.50;;;;;;;;;;5052676;28;20428;-65
2021/10/30 06:02:46;;;;;;;16.33;11.00;;;;;;;;;;5052653;28;20484;-65
2021/10/30 06:05:13;;;;;;;14.70;11.17;;;;;;;;;;5052985;28;20437;-65
2021/10/30 06:07:39;;;;;;;12.43;10.40;;;;;;;;;;5052594;28;20417;-65
2021/10/30 06:10:06;;;;;;;15.80;11.03;;;;;;;;;;5052808;28;20441;-65
2021/10/30 06:12:36;;;;;;;15.63;11.70;;;;;;;;;;5052435;28;20512;-65
2021/10/30 06:15:02;;;;;;;15.10;11.50;;;;;;;;;;5055835;28;20783;-65
2021/10/30 06:17:28;;;;;;;37.70;12.80;;;;;;;;;;5068205;28;20444;-65
2021/10/30 06:19:54;;;;;;;21.93;11.50;;;;;;;;;;5075663;28;20434;-65
2021/10/30 06:22:21;;;;;;;18.50;12.20;;;;;;;;;;5073561;28;20413;-65
2021/10/30 06:24:47;;;;;;;19.40;11.07;;;;;;;;;;5074561;28;20835;-64
2021/10/30 06:27:13;;;;;;;17.67;12.43;;;;;;;;;;5075602;28;20448;-65
2021/10/30 06:29:39;;;;;;;16.33;12.40;;;;;;;;;;5075327;28;20421;-63
2021/10/30 06:32:05;;;;;;;15.90;12.30;;;;;;;;;;5055648;28;20410;-65
2021/10/30 06:34:32;;;;;;;14.67;11.20;;;;;;;;;;5075555;28;20490;-65
2021/10/30 06:36:58;;;;;;;40.27;12.93;;;;;;;;;;5075402;28;20866;-65
2021/10/30 06:39:24;;;;;;;13.53;11.07;;;;;;;;;;5074827;28;20412;-65
2021/10/30 06:41:50;;;;;;;16.10;12.30;;;;;;;;;;5075575;28;20512;-65
2021/10/30 06:44:16;;;;;;;15.57;11.73;;;;;;;;;;5075421;28;20416;-65
2021/10/30 06:46:43;;;;;;;15.37;11.70;;;;;;;;;;5072127;28;20500;-65
2021/10/30 06:49:11;;;;;;;13.73;9.80;;;;;;;;;;5063761;28;20925;-65
2021/10/30 06:51:39;;;;;;;13.73;10.30;;;;;;;;;;5057731;28;20429;-65
2021/10/30 06:54:05;;;;;;;10.87;9.20;;;;;;;;;;5058632;28;20417;-66
2021/10/30 06:56:31;;;;;;;13.13;10.13;;;;;;;;;;5063917;28;20580;-65
2021/10/30 06:58:57;;;;;;;18.97;11.13;;;;;;;;;;5074282;28;20409;-65
2021/10/30 07:01:23;;;;;;;15.43;11.50;;;;;;;;;;5075496;28;20484;-64
2021/10/30 07:03:49;;;;;;;16.60;11.80;;;;;;;;;;5075794;28;20917;-64
2021/10/30 07:06:15;;;;;;;17.47;11.70;;;;;;;;;;5063825;28;20423;-65
2021/10/30 07:08:41;;;;;;;13.67;11.70;;;;;;;;;;5055318;28;20446;-65
2021/10/30 07:11:07;;;;;;;11.57;9.97;;;;;;;;;;5055745;28;20427;-65
2021/10/30 07:13:33;;;;;;;10.07;9.00;;;;;;;;;;5064233;28;20416;-65
2021/10/30 07:16:00;;;;;;;12.53;9.27;;;;;;;;;;5075107;28;20510;-65
2021/10/30 07:18:26;;;;;;;11.60;9.50;;;;;;;;;;5055959;28;20437;-65
2021/10/30 07:20:52;;;;;;;11.03;8.40;;;;;;;;;;5064396;28;20419;-64
2021/10/30 07:23:18;;;;;;;10.73;9.20;;;;;;;;;;5075769;28;20869;-64
2021/10/30 07:25:44;;;;;;;10.13;8.43;;;;;;;;;;5071329;28;20412;-64
2021/10/30 07:28:11;;;;;;;10.17;9.17;;;;;;;;;;5058428;28;20993;-66
2021/10/30 07:30:37;;;;;;;9.63;8.50;;;;;;;;;;5070976;28;20409;-67
2021/10/30 07:33:03;;;;;;;10.93;8.93;;;;;;;;;;5061999;28;20414;-66
2021/10/30 07:35:29;;;;;;;10.13;8.40;;;;;;;;;;5068037;28;20543;-65
2021/10/30 07:38:00;;;;;;;10.73;9.30;;;;;;;;;;5074843;28;20428;-66
2021/10/30 07:40:27;;;;;;;10.60;9.33;;;;;;;;;;5074720;28;20373;-65
2021/10/30 07:42:53;;;;;;;12.80;9.53;;;;;;;;;;5073519;28;20419;-66
2021/10/30 07:45:20;;;;;;;10.13;9.00;;;;;;;;;;5074211;28;20920;-65
2021/10/30 07:47:47;;;;;;;10.87;9.17;;;;;;;;;;5074174;28;20865;-65
2021/10/30 07:50:14;;;;;;;11.70;10.27;;;;;;;;;;5074631;28;20424;-65
2021/10/30 07:52:40;;;;;;;11.10;9.00;;;;;;;;;;5074521;28;20495;-67
2021/10/30 07:55:06;;;;;;;10.40;9.30;;;;;;;;;;5072776;28;20492;-64
2021/10/30 07:57:33;;;;;;;12.13;9.30;;;;;;;;;;5069615;28;20435;-68
2021/10/30 07:59:59;;;;;;;11.90;9.20;;;;;;;;;;5075072;28;20458;-65
2021/10/30 08:02:25;;;;;;;10.97;8.73;;;;;;;;;;5074754;28;20420;-65
2021/10/30 08:04:51;;;;;;;10.10;8.30;;;;;;;;;;5074583;28;20429;-65
2021/10/30 08:07:17;;;;;;;12.83;9.80;;;;;;;;;;5072677;28;20471;-65
2021/10/30 08:09:44;;;;;;;12.17;9.97;;;;;;;;;;5054168;28;20405;-65
2021/10/30 08:12:11;;;;;;;10.77;9.40;;;;;;;;;;5054058;28;20432;-65
2021/10/30 08:14:37;;;;;;;10.93;9.83;;;;;;;;;;5054342;28;20402;-65
2021/10/30 08:17:03;;;;;;;11.50;9.60;;;;;;;;;;5054243;28;20426;-65
2021/10/30 08:19:29;;;;;;;11.50;10.13;;;;;;;;;;5054106;28;20405;-65
2021/10/30 08:21:55;;;;;;;10.03;9.00;;;;;;;;;;5054187;28;20832;-65
2021/10/30 08:24:21;;;;;;;12.13;9.30;;;;;;;;;;5054253;28;20742;-65
2021/10/30 08:26:47;;;;;;;10.10;8.80;;;;;;;;;;5053992;28;20482;-66
2021/10/30 08:29:14;;;;;;;10.77;9.67;;;;;;;;;;5054536;28;20401;-67
2021/10/30 08:31:40;;;;;;;10.67;8.27;;;;;;;;;;5054139;28;20406;-66
2021/10/30 08:34:06;;;;;;;10.67;9.57;;;;;;;;;;5053909;28;20894;-66
2021/10/30 08:36:32;;;;;;;12.60;9.40;;;;;;;;;;5053137;28;20445;-65
2021/10/30 08:38:58;;;;;;;10.90;9.60;;;;;;;;;;5056924;28;20437;-64
2021/10/30 08:41:25;;;;;;;11.80;9.00;;;;;;;;;;5073448;28;20417;-66
2021/10/30 08:43:51;;;;;;;9.73;8.03;;;;;;;;;;5067271;28;20406;-66
2021/10/30 08:46:17;;;;;;;17.53;8.47;;;;;;;;;;5053680;28;20877;-66
2021/10/30 08:48:47;;;;;;;10.13;7.83;;;;;;;;;;5053520;28;20957;-66
2021/10/30 08:51:13;;;;;;;9.73;8.23;;;;;;;;;;5053839;28;20743;-66
2021/10/30 08:53:40;;;;;;;9.60;8.10;;;;;;;;;;5053461;28;20948;-66
2021/10/30 08:56:07;;;;;;;8.37;7.33;;;;;;;;;;5060316;28;20810;-66
2021/10/30 08:58:34;;;;;;;12.10;8.47;;;;;;;;;;5070365;28;20449;-66
2021/10/30 09:01:03;;;;;;;9.53;8.50;;;;;;;;;;5062028;28;20762;-66
2021/10/30 09:03:30;;;;;;;9.20;7.87;;;;;;;;;;5073533;28;20397;-66
2021/10/30 09:05:58;;;;;;;8.50;7.20;;;;;;;;;;5058582;28;20977;-66
2021/10/30 09:08:28;;;;;;;9.60;7.23;;;;;;;;;;5053463;28;20425;-66
2021/10/30 09:10:55;;;;;;;7.43;6.60;;;;;;;;;;5053110;28;20414;-66
2021/10/30 09:13:22;;;;;;;7.70;6.90;;;;;;;;;;5053128;28;20460;-66
2021/10/30 09:15:52;;;;;;;8.03;7.20;;;;;;;;;;5053073;28;20550;-66
2021/10/30 09:18:19;;;;;;;10.27;7.93;;;;;;;;;;5069363;28;20425;-66
2021/10/30 09:20:49;;;;;;;7.77;6.97;;;;;;;;;;5073223;28;20396;-66
2021/10/30 09:23:20;;;;;;;8.53;7.60;;;;;;;;;;5073042;28;20409;-66
2021/10/30 09:26:01;;;;;;;8.67;7.60;;;;;;;;;;5073213;28;20404;-66
2021/10/30 09:28:28;;;;;;;8.17;7.33;;;;;;;;;;5073008;28;20504;-66
2021/10/30 09:31:02;;;;;;;7.27;6.23;;;;;;;;;;5073049;28;20492;-66
2021/10/30 09:33:32;;;;;;;9.73;7.40;;;;;;;;;;5073075;28;20389;-66
2021/10/30 09:36:18;;;;;;;7.20;6.27;;;;;;;;;;5072966;28;20867;-66
2021/10/30 09:38:52;;;;;;;8.73;7.20;;;;;;;;;;5072825;28;20839;-66
2021/10/30 09:41:21;;;;;;;8.13;6.50;;;;;;;;;;5072880;28;20474;-66
2021/10/30 09:44:17;;;;;;;7.53;6.77;;;;;;;;;;5072902;28;20438;-66
2021/10/30 09:46:53;;;;;;;7.90;7.10;;;;;;;;;;5050998;28;20433;-66
2021/10/30 09:49:24;;;;;;;8.70;7.70;;;;;;;;;;5077260;28;20718;-66
2021/10/30 09:51:54;;;;;;;11.90;7.20;;;;;;;;;;5077174;28;20738;-66
2021/10/30 09:54:34;;;;;;;8.73;7.27;;;;;;;;;;5064389;28;20409;-66
2021/10/30 09:57:01;;;;;;;8.00;5.70;;;;;;;;;;5056894;28;20417;-66
2021/10/30 09:59:30;;;;;;;6.70;6.07;;;;;;;;;;5056726;28;20394;-66
2021/10/30 10:01:56;;;;;;;7.83;6.90;;;;;;;;;;5056607;28;20399;-67
2021/10/30 10:04:22;;;;;;;8.03;7.23;;;;;;;;;;5056907;28;20421;-66
2021/10/30 10:06:50;;;;;;;6.77;6.07;;;;;;;;;;5056894;28;20409;-66
2021/10/30 10:09:16;;;;;;;7.27;6.37;;;;;;;;;;5056687;28;20740;-66
2021/10/30 10:11:43;;;;;;;12.40;6.70;;;;;;;;;;5056365;28;20921;-66
2021/10/30 10:14:10;;;;;;;7.40;6.50;;;;;;;;;;5056589;28;20946;-66
2021/10/30 10:16:36;;;;;;;6.73;6.03;;;;;;;;;;5056416;28;20452;-65
2021/10/30 10:19:02;;;;;;;8.30;7.10;;;;;;;;;;5056372;28;20893;-65
2021/10/30 10:21:36;;;;;;;7.00;6.30;;;;;;;;;;5056510;28;20809;-65
2021/10/30 10:24:03;;;;;;;8.63;6.10;;;;;;;;;;5056345;28;20400;-66
2021/10/30 10:26:34;;;;;;;9.10;6.20;;;;;;;;;;5056416;28;20406;-65
2021/10/30 10:29:06;;;;;;;7.07;6.37;;;;;;;;;;5056620;28;20413;-65
2021/10/30 10:31:32;;;;;;;7.63;6.73;;;;;;;;;;5056240;28;20402;-65
2021/10/30 10:34:12;;;;;;;6.47;5.83;;;;;;;;;;5056081;28;20955;-66
2021/10/30 10:36:40;;;;;;;6.57;5.97;;;;;;;;;;5056142;28;20456;-66
2021/10/30 10:39:06;;;;;;;11.83;5.80;;;;;;;;;;5055744;28;20409;-66
2021/10/30 10:41:43;;;;;;;7.30;5.93;;;;;;;;;;5055624;28;20452;-66
2021/10/30 10:44:10;;;;;;;8.23;5.70;;;;;;;;;;5055987;28;20786;-66
2021/10/30 10:46:48;;;;;;;6.90;6.20;;;;;;;;;;5056214;28;20417;-66
2021/10/30 10:49:20;;;;;;;6.43;5.83;;;;;;;;;;5055678;28;20394;-66
2021/10/30 10:52:01;;;;;;;6.97;6.07;;;;;;;;;;5055760;28;20747;-66
2021/10/30 10:54:28;;;;;;;7.00;5.87;;;;;;;;;;5055337;28;20913;-66
2021/10/30 10:56:58;;;;;;;6.83;5.93;;;;;;;;;;5055201;28;20463;-66
2021/10/30 10:59:40;;;;;;;6.73;6.07;;;;;;;;;;5053285;28;20936;-66
2021/10/30 11:02:19;;;;;;;6.63;6.03;;;;;;;;;;5055463;28;20874;-66
2021/10/30 11:05:03;;;;;;;8.07;6.30;;;;;;;;;;5055241;28;20424;-66
2021/10/30 11:07:29;;;;;;;8.27;6.47;;;;;;;;;;5055528;28;20418;-66
2021/10/30 11:10:00;;;;;;;6.70;6.00;;;;;;;;;;5055373;28;20394;-66
2021/10/30 11:12:28;;;;;;;7.00;6.30;;;;;;;;;;5055667;28;20398;-66
2021/10/30 11:15:15;;;;;;;6.20;5.53;;;;;;;;;;5055158;28;20420;-66
2021/10/30 11:17:51;;;;;;;7.00;5.23;;;;;;;;;;5055433;28;20429;-66
2021/10/30 11:20:18;;;;;;;6.70;5.90;;;;;;;;;;5055010;28;20385;-66
2021/10/30 11:22:59;;;;;;;7.37;5.60;;;;;;;;;;5054955;28;20416;-66
2021/10/30 11:25:25;;;;;;;6.50;5.77;;;;;;;;;;5054961;28;20410;-66
2021/10/30 11:27:55;;;;;;;6.73;5.80;;;;;;;;;;5055404;28;20459;-66
2021/10/30 11:30:31;;;;;;;5.33;4.80;;;;;;;;;;5054894;28;20402;-66
2021/10/30 11:33:01;;;;;;;6.13;5.53;;;;;;;;;;5055007;28;20406;-66
2021/10/30 11:35:27;;;;;;;6.80;5.50;;;;;;;;;;5054694;28;20449;-66
2021/10/30 11:37:53;;;;;;;6.43;5.30;;;;;;;;;;5054635;28;20827;-66
2021/10/30 11:40:19;;;;;;;9.93;5.83;;;;;;;;;;5054632;28;20447;-66
2021/10/30 11:42:46;;;;;;;7.07;6.33;;;;;;;;;;5054537;28;20402;-66
2021/10/30 11:45:14;;;;;;;11.13;6.60;;;;;;;;;;5054570;28;20406;-66
2021/10/30 11:47:40;;;;;;;7.33;6.63;;;;;;;;;;5054488;28;20471;-65
2021/10/30 11:50:12;;;;;;;8.53;6.67;;;;;;;;;;5054549;28;20883;-66
2021/10/30 11:52:49;;;;;;;6.83;6.13;;;;;;;;;;5054945;28;20853;-66
2021/10/30 11:55:20;;;;;;;7.50;6.50;;;;;;;;;;5054550;28;20915;-66
2021/10/30 11:57:46;;;;;;;6.77;5.70;;;;;;;;;;5055240;28;20414;-66
2021/10/30 12:00:12;;;;;;;7.00;5.53;;;;;;;;;;5054737;28;20402;-66
2021/10/30 12:02:39;;;;;;;6.20;5.60;;;;;;;;;;5054704;28;20789;-66
2021/10/30 12:05:06;;;;;;;6.80;5.97;;;;;;;;;;5054493;28;20400;-66
2021/10/30 12:07:32;;;;;;;7.20;6.17;;;;;;;;;;5054293;28;20421;-66
2021/10/30 12:10:00;;;;;;;7.00;6.30;;;;;;;;;;5054215;28;20484;-66
2021/10/30 12:12:26;;;;;;;7.00;6.10;;;;;;;;;;5054110;28;20400;-65
2021/10/30 12:14:53;;;;;;;8.53;5.80;;;;;;;;;;5054424;28;20762;-66
2021/10/30 12:17:20;;;;;;;7.37;6.17;;;;;;;;;;5054121;28;20508;-65
2021/10/30 12:19:48;;;;;;;9.27;7.27;;;;;;;;;;5054304;28;20496;-64
2021/10/30 12:22:21;;;;;;;10.07;5.73;;;;;;;;;;5053786;28;20956;-66
2021/10/30 12:24:57;;;;;;;7.57;6.10;;;;;;;;;;5054259;28;20481;-66
2021/10/30 12:27:23;;;;;;;6.30;5.70;;;;;;;;;;5052641;28;20794;-66
2021/10/30 12:29:49;;;;;;;6.87;5.80;;;;;;;;;;5054145;28;20418;-66
2021/10/30 12:32:17;;;;;;;6.80;6.10;;;;;;;;;;5054362;28;20401;-65
2021/10/30 12:34:54;;;;;;;8.37;6.20;;;;;;;;;;5053791;28;20434;-65
2021/10/30 12:37:24;;;;;;;9.47;6.47;;;;;;;;;;5053781;28;20421;-65
2021/10/30 12:39:57;;;;;;;7.70;6.57;;;;;;;;;;5054559;28;20432;-65
2021/10/30 12:42:23;;;;;;;8.90;7.40;;;;;;;;;;5053723;28;20855;-65
2021/10/30 12:44:50;;;;;;;12.33;6.73;;;;;;;;;;5070757;28;20869;-66
2021/10/30 12:47:16;;;;;;;8.53;7.63;;;;;;;;;;5072351;28;20440;-66
2021/10/30 12:49:45;;;;;;;11.77;8.30;;;;;;;;;;5064100;28;20409;-66
2021/10/30 12:52:13;;;;;;;9.23;7.57;;;;;;;;;;5054072;28;20416;-66
2021/10/30 12:54:43;;;;;;;8.07;7.27;;;;;;;;;;5053597;28;20409;-65
2021/10/30 12:57:22;;;;;;;9.43;7.10;;;;;;;;;;5053594;28;20449;-65
2021/10/30 12:59:58;;;;;;;9.30;8.20;;;;;;;;;;5053552;28;20393;-66
2021/10/30 13:02:25;;;;;;;8.50;7.50;;;;;;;;;;5053570;28;20845;-64
2021/10/30 13:04:52;;;;;;;9.40;8.40;;;;;;;;;;5053287;28;20417;-64
2021/10/30 13:07:20;;;;;;;10.10;8.80;;;;;;;;;;5053175;28;20414;-66
2021/10/30 13:10:00;;;;;;;10.83;7.93;;;;;;;;;;5053200;28;20882;-64
2021/10/30 13:12:26;;;;;;;13.27;9.30;;;;;;;;;;5052890;28;20481;-64
2021/10/30 13:14:52;;;;;;;10.60;8.17;;;;;;;;;;5062597;28;20404;-64
2021/10/30 13:17:19;;;;;;;10.20;7.60;;;;;;;;;;5073129;28;20424;-64
2021/10/30 13:19:45;;;;;;;9.20;8.30;;;;;;;;;;5073370;28;20396;-64
2021/10/30 13:22:11;;;;;;;11.30;8.83;;;;;;;;;;5072566;28;20446;-65
2021/10/30 13:24:39;;;;;;;10.93;8.87;;;;;;;;;;5073069;28;20479;-66
2021/10/30 13:27:05;;;;;;;9.93;8.67;;;;;;;;;;5072924;28;21004;-64
2021/10/30 13:29:32;;;;;;;10.70;9.23;;;;;;;;;;5073124;28;20909;-65
2021/10/30 13:31:58;;;;;;;11.70;9.50;;;;;;;;;;5072943;28;20409;-64
2021/10/30 13:34:24;;;;;;;11.30;8.97;;;;;;;;;;5072952;28;20404;-64
2021/10/30 13:36:51;;;;;;;11.57;10.37;;;;;;;;;;5072988;28;20443;-64
2021/10/30 13:39:17;;;;;;;10.90;8.90;;;;;;;;;;5072955;28;20415;-64
2021/10/30 13:41:43;;;;;;;13.30;9.40;;;;;;;;;;5073016;28;20488;-64
2021/10/30 13:44:09;;;;;;;9.50;8.30;;;;;;;;;;5072984;28;20397;-64
2021/10/30 13:46:35;;;;;;;10.30;9.30;;;;;;;;;;5072812;28;20400;-64
2021/10/30 13:49:02;;;;;;;11.10;9.77;;;;;;;;;;5072817;28;20404;-64
2021/10/30 13:51:29;;;;;;;11.73;10.53;;;;;;;;;;5062216;28;20413;-64
2021/10/30 13:53:56;;;;;;;11.93;10.73;;;;;;;;;;5052936;28;20776;-65
2021/10/30 13:56:22;;;;;;;12.33;10.33;;;;;;;;;;5052599;28;20437;-65
2021/10/30 13:58:48;;;;;;;12.03;10.40;;;;;;;;;;5052752;28;20401;-64
2021/10/30 14:01:15;;;;;;;15.47;11.50;;;;;;;;;;5052568;28;20489;-64
2021/10/30 14:03:41;;;;;;;10.50;9.40;;;;;;;;;;5052862;28;20785;-64
2021/10/30 14:06:08;;;;;;;11.63;10.43;;;;;;;;;;5052514;28;20944;-64
2021/10/30 14:08:35;;;;;;;15.00;10.77;;;;;;;;;;5052870;28;20449;-64
2021/10/30 14:11:01;;;;;;;11.67;10.47;;;;;;;;;;5052649;28;20404;-65
2021/10/30 14:13:27;;;;;;;12.50;10.87;;;;;;;;;;5052762;28;20783;-64
2021/10/30 14:15:53;;;;;;;11.50;10.40;;;;;;;;;;5052751;28;20445;-64
2021/10/30 14:18:22;;;;;;;13.43;10.50;;;;;;;;;;5052529;28;20471;-65
2021/10/30 14:20:49;;;;;;;12.00;10.70;;;;;;;;;;5052499;28;20765;-64
2021/10/30 14:23:16;;;;;;;11.47;9.93;;;;;;;;;;5052357;28;20390;-65
2021/10/30 14:25:42;;;;;;;16.10;10.60;;;;;;;;;;5052372;28;20431;-64
2021/10/30 14:28:08;;;;;;;13.13;10.27;;;;;;;;;;5052239;28;20448;-64
2021/10/30 14:30:34;;;;;;;13.03;11.63;;;;;;;;;;5052385;28;20765;-64
2021/10/30 14:33:00;;;;;;;12.10;10.90;;;;;;;;;;5052543;28;20401;-64